KOAK/OAK METAR and TAF weather

Enter ICAO airport designator
Station Type Date Time Source
KOAK METAR 2020/07/08 00:53 UTC NOAA

KOAK 080053Z 29009KT 10SM CLR 21/12 A2992 RMK AO2 SLP130 T02060117


Station Type Date Time Source
KOAK Decoded METAR 2020/07/08 00:53 UTC NOAA

METRO OAKLAND INTERNATIONAL AIRPORT , CA, United States (KOAK) 37-43N 122-14W 26M
Jul 07, 2020 - 08:53 PM EDT / 2020.07.08 0053 UTC
Wind: from the WNW (290 degrees) at 10 MPH (9 KT):0
Visibility: 10 mile(s):0
Sky conditions: clear
Temperature: 69.1 F (20.6 C)
Dew Point: 53.1 F (11.7 C)
Relative Humidity: 56%
Pressure (altimeter): 29.92 in. Hg (1013 hPa)
ob: KOAK 080053Z 29009KT 10SM CLR 21/12 A2992 RMK AO2 SLP130 T02060117
cycle: 1

Station Type Date Time Source
KOAK TAF 2020/07/07 18:27 UTC NOAA

TAF KOAK 071725Z 0718/0824 25006KT P6SM FEW015
FM072100 27013KT P6SM SKC
FM080400 26007KT P6SM FEW015
FM080900 25005KT P6SM BKN012
FM081700 26005KT P6SM SCT015
FM082100 28011KT P6SM SKC

Example: see airport list